Airport View

Enter AWOS ICAO identifier for current METAR.

ex. KFNL

KHSV 040353Z 30004KT 10SM FEW130 24/19 A2994 RMK AO2 SLP130 T02390194

4 Aug 2020 04:47

Phone: 256-772-8074

Other Area AWOS: KDCU - KMDQ - KCMD - KFYM

TAF KHSV 032331Z 0400/0424 30004KT P6SM FEW050 SCT250